North Arm Prowler — CZ3772 — position and weather

sailwx.info

Track history (hours):
 
Tides and Currents Weather Stations Pressure Air Temp Water Temp Dewpoint Dewpoint Depression Visibility Wind Speed Wind Dir Waves Ship Positions

North Arm Prowler

Last reported at 2017-Nov-07 03:53 UTC. Time now 2017-Dec-11 19:13 UTC.
Position N 49°12' W 123°03'.
Warning: this ship's position is 34 days out of date.

Length 16 m.

Type: Towing. MMSI: 316000551.

Date/timePositionNaut miles runAvg speedWind from/ knotsBaromVisibWave heightAir tempDewpointWater temp
2017-Nov-07 03:53N 49°12' W 123°03'0 0.0
2017-Nov-07 03:30N 49°12' W 123°03'1 2.9
2017-Nov-07 03:00N 49°12' W 123°05'0 0.1
2017-Nov-07 02:30N 49°12' W 123°06'3 5.4
2017-Nov-07 02:00N 49°13' W 123°10'4 7.1
2017-Nov-07 01:30N 49°14' W 123°14'3 6.0
2017-Nov-07 01:00N 49°17' W 123°17'3 6.5
2017-Nov-07 00:30N 49°18' W 123°12'3 5.8
2017-Nov-07 00:00N 49°19' W 123°08'4 7.1
2017-Nov-06 23:30N 49°18' W 123°03'2 3.1
2017-Nov-06 23:00N 49°18' W 123°00'0 0.2
2017-Nov-06 22:30N 49°18' W 123°00'0 0.0
2017-Nov-06 22:00N 49°18' W 123°00'0 0.0
2017-Nov-06 21:30N 49°18' W 123°00'0 0.0
2017-Nov-06 21:00N 49°18' W 123°00'0 0.0
2017-Nov-06 20:30N 49°18' W 123°00'6 0.3
2017-Nov-06 02:30N 49°12' W 123°03'0 0.0
2017-Nov-06 01:58N 49°12' W 123°03'0 0.0
2017-Nov-06 01:30N 49°12' W 123°03'0 0.0
2017-Nov-06 00:59N 49°12' W 123°03'0 0.0
2017-Nov-06 00:30N 49°12' W 123°03'0 0.0
2017-Nov-05 23:59N 49°12' W 123°03'0 0.0
2017-Nov-05 23:30N 49°12' W 123°03'0 0.0
2017-Nov-05 23:00N 49°12' W 123°03'0 0.0
2017-Nov-05 22:29N 49°12' W 123°03'0 0.0
2017-Nov-05 22:00N 49°12' W 123°03'0 0.0
2017-Nov-05 21:29N 49°12' W 123°03'0 0.0
2017-Nov-05 20:58N 49°12' W 123°03'0 0.0
2017-Nov-05 20:29N 49°12' W 123°03'0 0.0
2017-Nov-05 20:00N 49°12' W 123°03'0 0.0
2017-Nov-05 19:30N 49°12' W 123°03'0 0.0
2017-Nov-05 19:00N 49°12' W 123°03'0 0.0
2017-Nov-05 18:30N 49°12' W 123°03'0 0.0
2017-Nov-05 17:58N 49°12' W 123°03'0 0.0
2017-Nov-05 17:29N 49°12' W 123°03'0 0.0
2017-Nov-05 16:58N 49°12' W 123°03'0 0.0
2017-Nov-05 16:30N 49°12' W 123°03'0 0.0
2017-Nov-05 16:00N 49°12' W 123°03'0 0.0
2017-Nov-05 15:30N 49°12' W 123°03'0 0.0
2017-Nov-05 15:00N 49°12' W 123°03'0 0.0
2017-Nov-05 14:30N 49°12' W 123°03'0 0.0
2017-Nov-05 14:00N 49°12' W 123°03'0 0.0
2017-Nov-05 13:29N 49°12' W 123°03'0 0.0
2017-Nov-05 12:59N 49°12' W 123°03'0 0.0
2017-Nov-05 12:30N 49°12' W 123°03'0 0.0
2017-Nov-05 12:00N 49°12' W 123°03'0 0.0
2017-Nov-05 11:29N 49°12' W 123°03'0 0.0
2017-Nov-05 10:59N 49°12' W 123°03'0 0.0
2017-Nov-05 10:30N 49°12' W 123°03'0 0.0
2017-Nov-05 10:00N 49°12' W 123°03'0 0.0
2017-Nov-05 09:28N 49°12' W 123°03'0 0.0
2017-Nov-05 09:00N 49°12' W 123°03'0 0.0
2017-Nov-05 08:30N 49°12' W 123°03'0 0.0
2017-Nov-05 08:00N 49°12' W 123°03'0 0.0
2017-Nov-05 07:30N 49°12' W 123°03'0 0.0
2017-Nov-05 07:00N 49°12' W 123°03'0 0.0
2017-Nov-05 06:30N 49°12' W 123°03'0 0.0
2017-Nov-05 06:00N 49°12' W 123°03'0 0.0
2017-Nov-05 05:30N 49°12' W 123°03'0 0.0
2017-Nov-05 05:00N 49°12' W 123°03'0 0.0
2017-Nov-05 04:29N 49°12' W 123°03'0 0.0
2017-Nov-05 04:00N 49°12' W 123°03'0 0.0
2017-Nov-05 03:30N 49°12' W 123°03'0 0.0
2017-Nov-05 03:00N 49°12' W 123°03'0 0.0
2017-Nov-05 02:30N 49°12' W 123°03'0 0.0
2017-Nov-05 01:59N 49°12' W 123°03'0 0.0
2017-Nov-05 01:29N 49°12' W 123°03'0 0.0
2017-Nov-05 00:59N 49°12' W 123°03'0 0.0
2017-Nov-05 00:29N 49°12' W 123°03'0 0.0
2017-Nov-05 00:00N 49°12' W 123°03'0 0.0
2017-Nov-04 23:29N 49°12' W 123°03'0 0.0
2017-Nov-04 22:59N 49°12' W 123°03'0 0.0
2017-Nov-04 22:28N 49°12' W 123°03'0 0.0
2017-Nov-04 21:59N 49°12' W 123°03'0 0.0
2017-Nov-04 21:30N 49°12' W 123°03'0 0.0
2017-Nov-04 20:58N 49°12' W 123°03'0 0.0
2017-Nov-04 20:30N 49°12' W 123°03'0 0.0
2017-Nov-04 20:00N 49°12' W 123°03'0 0.0
2017-Nov-04 19:29N 49°12' W 123°03'0 0.0
2017-Nov-04 18:59N 49°12' W 123°03'0 0.0
2017-Nov-04 18:30N 49°12' W 123°03'0 0.0
2017-Nov-04 18:00N 49°12' W 123°03'0 0.0
2017-Nov-04 17:30N 49°12' W 123°03'0 0.0
2017-Nov-04 17:00N 49°12' W 123°03'0 0.0
2017-Nov-04 16:29N 49°12' W 123°03'0 0.0
2017-Nov-04 15:59N 49°12' W 123°03'0 0.0
2017-Nov-04 15:29N 49°12' W 123°03'0 0.0
2017-Nov-04 15:00N 49°12' W 123°03'0 0.0
2017-Nov-04 14:30N 49°12' W 123°03'0 0.0
2017-Nov-04 14:00N 49°12' W 123°03'0 0.0
2017-Nov-04 13:29N 49°12' W 123°03'0 0.0
2017-Nov-04 12:59N 49°12' W 123°03'0 0.0
2017-Nov-04 12:30N 49°12' W 123°03'0 0.0
2017-Nov-04 11:59N 49°12' W 123°03'0 0.0
2017-Nov-04 11:30N 49°12' W 123°03'0 0.0
2017-Nov-04 11:00N 49°12' W 123°03'0 0.0
2017-Nov-04 10:30N 49°12' W 123°03'0 0.0
2017-Nov-04 09:59N 49°12' W 123°03'0 0.0
2017-Nov-04 09:29N 49°12' W 123°03'0 0.0
2017-Nov-04 09:00N 49°12' W 123°03'0 0.0
2017-Nov-04 08:30N 49°12' W 123°03'0 0.0
2017-Nov-04 07:58N 49°12' W 123°03'0 0.0
2017-Nov-04 07:29N 49°12' W 123°03'0 0.0
2017-Nov-04 06:59N 49°12' W 123°03'0 0.0
2017-Nov-04 06:30N 49°12' W 123°03'0 0.0
2017-Nov-04 06:00N 49°12' W 123°03'0 0.0
2017-Nov-04 05:30N 49°12' W 123°03'0 0.0
2017-Nov-04 04:59N 49°12' W 123°03'0 0.0
2017-Nov-04 04:30N 49°12' W 123°03'0 0.0
2017-Nov-04 04:00N 49°12' W 123°03'0 0.0
2017-Nov-04 03:30N 49°12' W 123°03'0 0.0
2017-Nov-04 03:00N 49°12' W 123°03'0 0.0
2017-Nov-04 02:30N 49°12' W 123°03'0 0.0
2017-Nov-04 02:00N 49°12' W 123°03'0 0.0
2017-Nov-04 01:30N 49°12' W 123°03'0 0.0
2017-Nov-04 00:55N 49°12' W 123°03'0 0.0
2017-Nov-04 00:30N 49°12' W 123°03'0 0.0
2017-Nov-04 00:00N 49°12' W 123°03'0 0.0
2017-Nov-03 23:30N 49°12' W 123°03'0 0.0
2017-Nov-03 23:00N 49°12' W 123°03'0 0.0
2017-Nov-03 22:29N 49°12' W 123°03'0 0.0
2017-Nov-03 21:59N 49°12' W 123°03'0 0.0
2017-Nov-03 21:29N 49°12' W 123°03'0 0.0
2017-Nov-03 21:00N 49°12' W 123°03'0 0.0
2017-Nov-03 20:30N 49°12' W 123°03'0 0.0
2017-Nov-03 20:00N 49°12' W 123°03'0 0.0
2017-Nov-03 19:30N 49°12' W 123°03'0 0.0
2017-Nov-03 19:00N 49°12' W 123°03'0 0.0
2017-Nov-03 18:30N 49°12' W 123°03'0 0.0
2017-Nov-03 18:00N 49°12' W 123°03'0 0.0
2017-Nov-03 17:30N 49°12' W 123°03'2 3.8
2017-Nov-03 17:00N 49°12' W 123°06'4 7.3
2017-Nov-03 16:30N 49°13' W 123°11'4 8.2
2017-Nov-03 16:00N 49°15' W 123°17'510.0
2017-Nov-03 15:28N 49°14' W 123°25'12 3.0
2017-Nov-03 11:30N 49°15' W 123°43'4 8.3
2017-Nov-03 10:59N 49°15' W 123°36'4 9.0
2017-Nov-03 10:30N 49°16' W 123°30'5 9.3
2017-Nov-03 10:00N 49°18' W 123°23'4 8.8
2017-Nov-03 09:30N 49°19' W 123°17'4 8.5
2017-Nov-03 09:00N 49°19' W 123°10'3 6.0
2017-Nov-03 08:30N 49°18' W 123°06'0 0.8
2017-Nov-03 08:00N 49°17' W 123°06'1 1.6
2017-Nov-03 07:30N 49°18' W 123°07'0 0.0
2017-Nov-03 07:00N 49°18' W 123°07'0 0.0
2017-Nov-03 06:30N 49°18' W 123°07'0 0.0
2017-Nov-03 06:00N 49°18' W 123°07'0 0.0
2017-Nov-03 05:30N 49°18' W 123°07'0 0.0
2017-Nov-03 05:00N 49°18' W 123°07'1 2.7
2017-Nov-03 04:30N 49°19' W 123°08'510.4
2017-Nov-03 04:00N 49°17' W 123°16'4 8.3
2017-Nov-03 03:30N 49°14' W 123°13'510.7
2017-Nov-03 03:00N 49°12' W 123°05'1 0.3
2017-Nov-02 22:07N 49°12' W 123°03'0 0.0
2017-Nov-02 21:59N 49°12' W 123°03'0 0.0
2017-Nov-02 21:27N 49°12' W 123°03'0 0.0
2017-Nov-02 21:00N 49°12' W 123°03'0 0.0
2017-Nov-02 20:30N 49°12' W 123°03'0 0.0
2017-Nov-02 19:59N 49°12' W 123°03'0 0.0
2017-Nov-02 19:30N 49°12' W 123°03'0 0.0
2017-Nov-02 19:00N 49°12' W 123°03'0 0.0
2017-Nov-02 18:30N 49°12' W 123°03'0 0.0
2017-Nov-02 18:00N 49°12' W 123°03'0 0.0
2017-Nov-02 17:30N 49°12' W 123°03'0 0.0
2017-Nov-02 17:00N 49°12' W 123°03'0 0.0
2017-Nov-02 16:30N 49°12' W 123°03'0 0.0
2017-Nov-02 16:00N 49°12' W 123°03'0 0.0
2017-Nov-02 15:30N 49°12' W 123°03'0 0.0
2017-Nov-02 15:00N 49°12' W 123°03'0 0.0
2017-Nov-02 12:40N 49°12' W 123°03'0 0.0
2017-Nov-02 12:31N 49°12' W 123°03'0 0.0
2017-Nov-02 11:58N 49°12' W 123°03'0 0.0
2017-Nov-02 11:24N 49°12' W 123°03'0 0.0
2017-Nov-02 11:00N 49°12' W 123°03'0 0.0
2017-Nov-02 10:29N 49°12' W 123°03'0 0.0
2017-Nov-02 09:59N 49°12' W 123°03'1 2.8
2017-Nov-02 09:30N 49°12' W 123°01'4 8.1
2017-Nov-02 09:00N 49°12' W 122°55'3 6.8
2017-Nov-02 08:30N 49°09' W 122°59'3 5.5
2017-Nov-02 08:00N 49°08' W 123°03'2 4.4
2017-Nov-02 07:30N 49°07' W 123°06'3 5.9
2017-Nov-02 07:00N 49°07' W 123°10'3 5.4
2017-Nov-02 06:31N 49°08' W 123°14'3 5.2
2017-Nov-02 06:01N 49°07' W 123°17'2 4.3
2017-Nov-02 05:30N 49°07' W 123°21'4 8.8
2017-Nov-02 05:00N 49°10' W 123°26'4 8.9
2017-Nov-02 04:31N 49°12' W 123°31'4 8.9
2017-Nov-02 04:01N 49°15' W 123°36'5 9.1
2017-Nov-02 03:30N 49°17' W 123°43'4 8.8
2017-Nov-02 03:00N 49°20' W 123°48'4 8.8
2017-Nov-02 02:30N 49°22' W 123°54'4 8.8
2017-Nov-02 02:01N 49°25' W 123°59'4 8.9
2017-Nov-02 01:30N 49°27' W 124°05'4 8.8
2017-Nov-02 01:01N 49°30' W 124°10'4 8.3
2017-Nov-02 00:31N 49°32' W 124°16'4 8.5
2017-Nov-02 00:00N 49°34' W 124°22'4 8.6
2017-Nov-01 23:31N 49°36' W 124°27'4 8.6
2017-Nov-01 23:00N 49°39' W 124°33'5 9.0
2017-Nov-01 22:31N 49°41' W 124°39'5 9.0
2017-Nov-01 22:00N 49°44' W 124°44'4 8.9
2017-Nov-01 21:30N 49°47' W 124°50'4 8.6
2017-Nov-01 21:00N 49°50' W 124°55'4 8.5
2017-Nov-01 20:30N 49°52' W 124°60'4 8.6
2017-Nov-01 20:01N 49°55' W 125°05'5 9.4
2017-Nov-01 19:30N 49°58' W 125°10'713.2
2017-Nov-01 19:00N 50°04' W 125°15'611.7
2017-Nov-01 18:30N 50°08' W 125°21'122 7.4
2017-Nov-01 02:00N 51°25' W 127°52'5 9.7
2017-Nov-01 01:30N 51°30' W 127°51'5 9.8
2017-Nov-01 01:00N 51°35' W 127°52'5 9.6
2017-Nov-01 00:31N 51°39' W 127°54'4 9.0
2017-Nov-01 00:01N 51°44' W 127°55'4 8.9
2017-Oct-31 23:30N 51°48' W 127°56'5 9.0
2017-Oct-31 23:00N 51°53' W 127°56'5 9.1
2017-Oct-31 22:31N 51°57' W 127°56'5 9.3
2017-Oct-31 22:00N 52°02' W 127°56'4 7.4
2017-Oct-31 21:30N 52°05' W 128°00'4 7.8
2017-Oct-31 21:01N 52°05' W 128°06'4 7.8
2017-Oct-31 20:30N 52°09' W 128°08'4 6.7
2017-Oct-31 19:53N 52°13' W 128°09'3 8.2
2017-Oct-31 19:28N 52°14' W 128°14'8 7.6
2017-Oct-31 18:28N 52°16' W 128°26'4 8.4
2017-Oct-31 17:59N 52°20' W 128°30'4 8.3
2017-Oct-31 17:30N 52°24' W 128°29'16 0.4
2017-Oct-30 05:24N 52°39' W 128°32'2 4.9
2017-Oct-30 05:00N 52°38' W 128°30'7 5.7
2017-Oct-30 03:45N 52°31' W 128°28'1 5.6
2017-Oct-30 03:30N 52°29' W 128°27'3 5.7
2017-Oct-30 03:00N 52°27' W 128°28'3 6.0
2017-Oct-30 02:31N 52°24' W 128°31'3 6.0
2017-Oct-30 02:00N 52°21' W 128°31'4 7.2
2017-Oct-30 01:30N 52°18' W 128°29'4 7.5
2017-Oct-30 01:00N 52°16' W 128°24'5 8.0
2017-Oct-30 00:22N 52°15' W 128°16'3 7.4
2017-Oct-30 00:00N 52°14' W 128°12'4 6.7
2017-Oct-29 23:24N 52°12' W 128°06'3 7.2
2017-Oct-29 22:59N 52°09' W 128°08'3 7.1
2017-Oct-29 22:30N 52°06' W 128°07'4 7.1
2017-Oct-29 21:56N 52°05' W 128°01'3 7.0
2017-Oct-29 21:30N 52°04' W 127°56'3 5.4
2017-Oct-29 21:00N 52°01' W 127°56'3 5.1
2017-Oct-29 20:30N 51°58' W 127°56'3 6.0
2017-Oct-29 20:01N 51°55' W 127°56'3 5.6
2017-Oct-29 19:30N 51°53' W 127°56'3 6.6
2017-Oct-29 19:01N 51°49' W 127°55'3 6.1
2017-Oct-29 18:31N 51°46' W 127°55'3 7.0
2017-Oct-29 18:00N 51°43' W 127°55'3 6.5
2017-Oct-29 17:31N 51°40' W 127°54'3 6.0
2017-Oct-29 17:00N 51°37' W 127°53'3 5.7
2017-Oct-29 16:31N 51°34' W 127°53'3 5.9
2017-Oct-29 16:01N 51°31' W 127°52'3 6.1
2017-Oct-29 15:30N 51°28' W 127°51'3 5.7
2017-Oct-29 14:58N 51°25' W 127°52'3 6.1
2017-Oct-29 14:29N 51°22' W 127°53'3 6.5
2017-Oct-29 13:59N 51°18' W 127°53'5 6.5
2017-Oct-29 13:16N 51°14' W 127°52'2 6.2
2017-Oct-29 12:59N 51°12' W 127°51'3 6.3
2017-Oct-29 12:31N 51°09' W 127°50'3 6.2
2017-Oct-29 12:00N 51°07' W 127°47'4 7.0
2017-Oct-29 11:30N 51°04' W 127°43'3 6.4
2017-Oct-29 11:00N 51°03' W 127°39'3 6.6
2017-Oct-29 10:31N 51°00' W 127°35'3 6.6
2017-Oct-29 10:01N 50°58' W 127°31'3 6.7
2017-Oct-29 09:31N 50°56' W 127°27'4 7.3
2017-Oct-29 09:01N 50°54' W 127°22'4 7.6
2017-Oct-29 08:30N 50°52' W 127°17'4 7.6
2017-Oct-29 07:58N 50°50' W 127°12'4 7.4
2017-Oct-29 07:30N 50°48' W 127°07'4 7.6
2017-Oct-29 06:56N 50°45' W 127°02'17 7.2
2017-Oct-29 04:34N 50°34' W 126°41'0 6.8
2017-Oct-29 04:30N 50°34' W 126°41'4 6.8
2017-Oct-29 03:53N 50°31' W 126°36'61 6.9
2017-Oct-28 19:01N 50°01' W 125°13'3 5.8
2017-Oct-28 18:30N 49°58' W 125°10'3 5.6
2017-Oct-28 18:00N 49°57' W 125°07'4 7.0
2017-Oct-28 17:29N 49°55' W 125°02'3 7.2
2017-Oct-28 17:00N 49°52' W 124°58'4 7.1
2017-Oct-28 16:30N 49°50' W 124°54'3 6.9
2017-Oct-28 16:01N 49°48' W 124°50'3 6.7
2017-Oct-28 15:30N 49°46' W 124°46'3 6.7
2017-Oct-28 15:00N 49°44' W 124°41'3 6.8
2017-Oct-28 14:30N 49°42' W 124°37'4 7.1
2017-Oct-28 14:00N 49°39' W 124°33'4 7.3
2017-Oct-28 13:30N 49°37' W 124°29'4 7.2
2017-Oct-28 13:00N 49°35' W 124°24'4 7.0
2017-Oct-28 12:30N 49°33' W 124°20'4 7.0
2017-Oct-28 12:00N 49°32' W 124°15'3 6.9
2017-Oct-28 11:30N 49°30' W 124°10'3 6.9
2017-Oct-28 11:00N 49°28' W 124°06'3 6.6
2017-Oct-28 10:30N 49°26' W 124°02'3 6.2
2017-Oct-28 10:00N 49°24' W 123°58'3 6.2
2017-Oct-28 09:30N 49°22' W 123°54'3 6.5
2017-Oct-28 09:00N 49°21' W 123°50'3 6.7
2017-Oct-28 08:30N 49°19' W 123°45'3 6.7
2017-Oct-28 08:00N 49°17' W 123°41'3 6.6
2017-Oct-28 07:30N 49°15' W 123°37'3 6.4
2017-Oct-28 07:00N 49°13' W 123°34'3 6.5
2017-Oct-28 06:30N 49°11' W 123°30'3 6.4
2017-Oct-28 06:00N 49°09' W 123°26'3 6.7
2017-Oct-28 05:29N 49°07' W 123°21'3 6.0
2017-Oct-28 05:00N 49°07' W 123°17'4 7.3
2017-Oct-28 04:30N 49°07' W 123°11'4 8.1
2017-Oct-28 04:00N 49°07' W 123°05'  
Track history (hours):
 
Tides and Currents Weather Stations Pressure Air Temp Water Temp Dewpoint Dewpoint Depression Visibility Wind Speed Wind Dir Waves Ship Positions

North Arm Prowler

Last reported at 2017-Nov-07 03:53 UTC. Time now 2017-Dec-11 19:13 UTC.
Position N 49°12' W 123°03'.
Warning: this ship's position is 34 days out of date.

Length 16 m.

Type: Towing. MMSI: 316000551.

Date/timePositionNaut miles runAvg speedWind from/ knotsBaromVisibWave heightAir tempDewpointWater temp
2017-Nov-07 03:53N 49°12' W 123°03'0 0.0
2017-Nov-07 03:30N 49°12' W 123°03'1 2.9
2017-Nov-07 03:00N 49°12' W 123°05'0 0.1
2017-Nov-07 02:30N 49°12' W 123°06'3 5.4
2017-Nov-07 02:00N 49°13' W 123°10'4 7.1
2017-Nov-07 01:30N 49°14' W 123°14'3 6.0
2017-Nov-07 01:00N 49°17' W 123°17'3 6.5
2017-Nov-07 00:30N 49°18' W 123°12'3 5.8
2017-Nov-07 00:00N 49°19' W 123°08'4 7.1
2017-Nov-06 23:30N 49°18' W 123°03'2 3.1
2017-Nov-06 23:00N 49°18' W 123°00'0 0.2
2017-Nov-06 22:30N 49°18' W 123°00'0 0.0
2017-Nov-06 22:00N 49°18' W 123°00'0 0.0
2017-Nov-06 21:30N 49°18' W 123°00'0 0.0
2017-Nov-06 21:00N 49°18' W 123°00'0 0.0
2017-Nov-06 20:30N 49°18' W 123°00'6 0.3
2017-Nov-06 02:30N 49°12' W 123°03'0 0.0
2017-Nov-06 01:58N 49°12' W 123°03'0 0.0
2017-Nov-06 01:30N 49°12' W 123°03'0 0.0
2017-Nov-06 00:59N 49°12' W 123°03'0 0.0
2017-Nov-06 00:30N 49°12' W 123°03'0 0.0
2017-Nov-05 23:59N 49°12' W 123°03'0 0.0
2017-Nov-05 23:30N 49°12' W 123°03'0 0.0
2017-Nov-05 23:00N 49°12' W 123°03'0 0.0
2017-Nov-05 22:29N 49°12' W 123°03'0 0.0
2017-Nov-05 22:00N 49°12' W 123°03'0 0.0
2017-Nov-05 21:29N 49°12' W 123°03'0 0.0
2017-Nov-05 20:58N 49°12' W 123°03'0 0.0
2017-Nov-05 20:29N 49°12' W 123°03'0 0.0
2017-Nov-05 20:00N 49°12' W 123°03'0 0.0
2017-Nov-05 19:30N 49°12' W 123°03'0 0.0
2017-Nov-05 19:00N 49°12' W 123°03'0 0.0
2017-Nov-05 18:30N 49°12' W 123°03'0 0.0
2017-Nov-05 17:58N 49°12' W 123°03'0 0.0
2017-Nov-05 17:29N 49°12' W 123°03'0 0.0
2017-Nov-05 16:58N 49°12' W 123°03'0 0.0
2017-Nov-05 16:30N 49°12' W 123°03'0 0.0
2017-Nov-05 16:00N 49°12' W 123°03'0 0.0
2017-Nov-05 15:30N 49°12' W 123°03'0 0.0
2017-Nov-05 15:00N 49°12' W 123°03'0 0.0
2017-Nov-05 14:30N 49°12' W 123°03'0 0.0
2017-Nov-05 14:00N 49°12' W 123°03'0 0.0
2017-Nov-05 13:29N 49°12' W 123°03'0 0.0
2017-Nov-05 12:59N 49°12' W 123°03'0 0.0
2017-Nov-05 12:30N 49°12' W 123°03'0 0.0
2017-Nov-05 12:00N 49°12' W 123°03'0 0.0
2017-Nov-05 11:29N 49°12' W 123°03'0 0.0
2017-Nov-05 10:59N 49°12' W 123°03'0 0.0
2017-Nov-05 10:30N 49°12' W 123°03'0 0.0
2017-Nov-05 10:00N 49°12' W 123°03'0 0.0
2017-Nov-05 09:28N 49°12' W 123°03'0 0.0
2017-Nov-05 09:00N 49°12' W 123°03'0 0.0
2017-Nov-05 08:30N 49°12' W 123°03'0 0.0
2017-Nov-05 08:00N 49°12' W 123°03'0 0.0
2017-Nov-05 07:30N 49°12' W 123°03'0 0.0
2017-Nov-05 07:00N 49°12' W 123°03'0 0.0
2017-Nov-05 06:30N 49°12' W 123°03'0 0.0
2017-Nov-05 06:00N 49°12' W 123°03'0 0.0
2017-Nov-05 05:30N 49°12' W 123°03'0 0.0
2017-Nov-05 05:00N 49°12' W 123°03'0 0.0
2017-Nov-05 04:29N 49°12' W 123°03'0 0.0
2017-Nov-05 04:00N 49°12' W 123°03'0 0.0
2017-Nov-05 03:30N 49°12' W 123°03'0 0.0
2017-Nov-05 03:00N 49°12' W 123°03'0 0.0
2017-Nov-05 02:30N 49°12' W 123°03'0 0.0
2017-Nov-05 01:59N 49°12' W 123°03'0 0.0
2017-Nov-05 01:29N 49°12' W 123°03'0 0.0
2017-Nov-05 00:59N 49°12' W 123°03'0 0.0
2017-Nov-05 00:29N 49°12' W 123°03'0 0.0
2017-Nov-05 00:00N 49°12' W 123°03'0 0.0
2017-Nov-04 23:29N 49°12' W 123°03'0 0.0
2017-Nov-04 22:59N 49°12' W 123°03'0 0.0
2017-Nov-04 22:28N 49°12' W 123°03'0 0.0
2017-Nov-04 21:59N 49°12' W 123°03'0 0.0
2017-Nov-04 21:30N 49°12' W 123°03'0 0.0
2017-Nov-04 20:58N 49°12' W 123°03'0 0.0
2017-Nov-04 20:30N 49°12' W 123°03'0 0.0
2017-Nov-04 20:00N 49°12' W 123°03'0 0.0
2017-Nov-04 19:29N 49°12' W 123°03'0 0.0
2017-Nov-04 18:59N 49°12' W 123°03'0 0.0
2017-Nov-04 18:30N 49°12' W 123°03'0 0.0
2017-Nov-04 18:00N 49°12' W 123°03'0 0.0
2017-Nov-04 17:30N 49°12' W 123°03'0 0.0
2017-Nov-04 17:00N 49°12' W 123°03'0 0.0
2017-Nov-04 16:29N 49°12' W 123°03'0 0.0
2017-Nov-04 15:59N 49°12' W 123°03'0 0.0
2017-Nov-04 15:29N 49°12' W 123°03'0 0.0
2017-Nov-04 15:00N 49°12' W 123°03'0 0.0
2017-Nov-04 14:30N 49°12' W 123°03'0 0.0
2017-Nov-04 14:00N 49°12' W 123°03'0 0.0
2017-Nov-04 13:29N 49°12' W 123°03'0 0.0
2017-Nov-04 12:59N 49°12' W 123°03'0 0.0
2017-Nov-04 12:30N 49°12' W 123°03'0 0.0
2017-Nov-04 11:59N 49°12' W 123°03'0 0.0
2017-Nov-04 11:30N 49°12' W 123°03'0 0.0
2017-Nov-04 11:00N 49°12' W 123°03'0 0.0
2017-Nov-04 10:30N 49°12' W 123°03'0 0.0
2017-Nov-04 09:59N 49°12' W 123°03'0 0.0
2017-Nov-04 09:29N 49°12' W 123°03'0 0.0
2017-Nov-04 09:00N 49°12' W 123°03'0 0.0
2017-Nov-04 08:30N 49°12' W 123°03'0 0.0
2017-Nov-04 07:58N 49°12' W 123°03'0 0.0
2017-Nov-04 07:29N 49°12' W 123°03'0 0.0
2017-Nov-04 06:59N 49°12' W 123°03'0 0.0
2017-Nov-04 06:30N 49°12' W 123°03'0 0.0
2017-Nov-04 06:00N 49°12' W 123°03'0 0.0
2017-Nov-04 05:30N 49°12' W 123°03'0 0.0
2017-Nov-04 04:59N 49°12' W 123°03'0 0.0
2017-Nov-04 04:30N 49°12' W 123°03'0 0.0
2017-Nov-04 04:00N 49°12' W 123°03'0 0.0
2017-Nov-04 03:30N 49°12' W 123°03'0 0.0
2017-Nov-04 03:00N 49°12' W 123°03'0 0.0
2017-Nov-04 02:30N 49°12' W 123°03'0 0.0
2017-Nov-04 02:00N 49°12' W 123°03'0 0.0
2017-Nov-04 01:30N 49°12' W 123°03'0 0.0
2017-Nov-04 00:55N 49°12' W 123°03'0 0.0
2017-Nov-04 00:30N 49°12' W 123°03'0 0.0
2017-Nov-04 00:00N 49°12' W 123°03'0 0.0
2017-Nov-03 23:30N 49°12' W 123°03'0 0.0
2017-Nov-03 23:00N 49°12' W 123°03'0 0.0
2017-Nov-03 22:29N 49°12' W 123°03'0 0.0
2017-Nov-03 21:59N 49°12' W 123°03'0 0.0
2017-Nov-03 21:29N 49°12' W 123°03'0 0.0
2017-Nov-03 21:00N 49°12' W 123°03'0 0.0
2017-Nov-03 20:30N 49°12' W 123°03'0 0.0
2017-Nov-03 20:00N 49°12' W 123°03'0 0.0
2017-Nov-03 19:30N 49°12' W 123°03'0 0.0
2017-Nov-03 19:00N 49°12' W 123°03'0 0.0
2017-Nov-03 18:30N 49°12' W 123°03'0 0.0
2017-Nov-03 18:00N 49°12' W 123°03'0 0.0
2017-Nov-03 17:30N 49°12' W 123°03'2 3.8
2017-Nov-03 17:00N 49°12' W 123°06'4 7.3
2017-Nov-03 16:30N 49°13' W 123°11'4 8.2
2017-Nov-03 16:00N 49°15' W 123°17'510.0
2017-Nov-03 15:28N 49°14' W 123°25'12 3.0
2017-Nov-03 11:30N 49°15' W 123°43'4 8.3
2017-Nov-03 10:59N 49°15' W 123°36'4 9.0
2017-Nov-03 10:30N 49°16' W 123°30'5 9.3
2017-Nov-03 10:00N 49°18' W 123°23'4 8.8
2017-Nov-03 09:30N 49°19' W 123°17'4 8.5
2017-Nov-03 09:00N 49°19' W 123°10'3 6.0
2017-Nov-03 08:30N 49°18' W 123°06'0 0.8
2017-Nov-03 08:00N 49°17' W 123°06'1 1.6
2017-Nov-03 07:30N 49°18' W 123°07'0 0.0
2017-Nov-03 07:00N 49°18' W 123°07'0 0.0
2017-Nov-03 06:30N 49°18' W 123°07'0 0.0
2017-Nov-03 06:00N 49°18' W 123°07'0 0.0
2017-Nov-03 05:30N 49°18' W 123°07'0 0.0
2017-Nov-03 05:00N 49°18' W 123°07'1 2.7
2017-Nov-03 04:30N 49°19' W 123°08'510.4
2017-Nov-03 04:00N 49°17' W 123°16'4 8.3
2017-Nov-03 03:30N 49°14' W 123°13'510.7
2017-Nov-03 03:00N 49°12' W 123°05'1 0.3
2017-Nov-02 22:07N 49°12' W 123°03'0 0.0
2017-Nov-02 21:59N 49°12' W 123°03'0 0.0
2017-Nov-02 21:27N 49°12' W 123°03'0 0.0
2017-Nov-02 21:00N 49°12' W 123°03'0 0.0
2017-Nov-02 20:30N 49°12' W 123°03'0 0.0
2017-Nov-02 19:59N 49°12' W 123°03'0 0.0
2017-Nov-02 19:30N 49°12' W 123°03'0 0.0
2017-Nov-02 19:00N 49°12' W 123°03'0 0.0
2017-Nov-02 18:30N 49°12' W 123°03'0 0.0
2017-Nov-02 18:00N 49°12' W 123°03'0 0.0
2017-Nov-02 17:30N 49°12' W 123°03'0 0.0
2017-Nov-02 17:00N 49°12' W 123°03'0 0.0
2017-Nov-02 16:30N 49°12' W 123°03'0 0.0
2017-Nov-02 16:00N 49°12' W 123°03'0 0.0
2017-Nov-02 15:30N 49°12' W 123°03'0 0.0
2017-Nov-02 15:00N 49°12' W 123°03'0 0.0
2017-Nov-02 12:40N 49°12' W 123°03'0 0.0
2017-Nov-02 12:31N 49°12' W 123°03'0 0.0
2017-Nov-02 11:58N 49°12' W 123°03'0 0.0
2017-Nov-02 11:24N 49°12' W 123°03'0 0.0
2017-Nov-02 11:00N 49°12' W 123°03'0 0.0
2017-Nov-02 10:29N 49°12' W 123°03'0 0.0
2017-Nov-02 09:59N 49°12' W 123°03'1 2.8
2017-Nov-02 09:30N 49°12' W 123°01'4 8.1
2017-Nov-02 09:00N 49°12' W 122°55'3 6.8
2017-Nov-02 08:30N 49°09' W 122°59'3 5.5
2017-Nov-02 08:00N 49°08' W 123°03'2 4.4
2017-Nov-02 07:30N 49°07' W 123°06'3 5.9
2017-Nov-02 07:00N 49°07' W 123°10'3 5.4
2017-Nov-02 06:31N 49°08' W 123°14'3 5.2
2017-Nov-02 06:01N 49°07' W 123°17'2 4.3
2017-Nov-02 05:30N 49°07' W 123°21'4 8.8
2017-Nov-02 05:00N 49°10' W 123°26'4 8.9
2017-Nov-02 04:31N 49°12' W 123°31'4 8.9
2017-Nov-02 04:01N 49°15' W 123°36'5 9.1
2017-Nov-02 03:30N 49°17' W 123°43'4 8.8
2017-Nov-02 03:00N 49°20' W 123°48'4 8.8
2017-Nov-02 02:30N 49°22' W 123°54'4 8.8
2017-Nov-02 02:01N 49°25' W 123°59'4 8.9
2017-Nov-02 01:30N 49°27' W 124°05'4 8.8
2017-Nov-02 01:01N 49°30' W 124°10'4 8.3
2017-Nov-02 00:31N 49°32' W 124°16'4 8.5
2017-Nov-02 00:00N 49°34' W 124°22'4 8.6
2017-Nov-01 23:31N 49°36' W 124°27'4 8.6
2017-Nov-01 23:00N 49°39' W 124°33'5 9.0
2017-Nov-01 22:31N 49°41' W 124°39'5 9.0
2017-Nov-01 22:00N 49°44' W 124°44'4 8.9
2017-Nov-01 21:30N 49°47' W 124°50'4 8.6
2017-Nov-01 21:00N 49°50' W 124°55'4 8.5
2017-Nov-01 20:30N 49°52' W 124°60'4 8.6
2017-Nov-01 20:01N 49°55' W 125°05'5 9.4
2017-Nov-01 19:30N 49°58' W 125°10'713.2
2017-Nov-01 19:00N 50°04' W 125°15'611.7
2017-Nov-01 18:30N 50°08' W 125°21'122 7.4
2017-Nov-01 02:00N 51°25' W 127°52'5 9.7
2017-Nov-01 01:30N 51°30' W 127°51'5 9.8
2017-Nov-01 01:00N 51°35' W 127°52'5 9.6
2017-Nov-01 00:31N 51°39' W 127°54'4 9.0
2017-Nov-01 00:01N 51°44' W 127°55'4 8.9
2017-Oct-31 23:30N 51°48' W 127°56'5 9.0
2017-Oct-31 23:00N 51°53' W 127°56'5 9.1
2017-Oct-31 22:31N 51°57' W 127°56'5 9.3
2017-Oct-31 22:00N 52°02' W 127°56'4 7.4
2017-Oct-31 21:30N 52°05' W 128°00'4 7.8
2017-Oct-31 21:01N 52°05' W 128°06'4 7.8
2017-Oct-31 20:30N 52°09' W 128°08'4 6.7
2017-Oct-31 19:53N 52°13' W 128°09'3 8.2
2017-Oct-31 19:28N 52°14' W 128°14'8 7.6
2017-Oct-31 18:28N 52°16' W 128°26'4 8.4
2017-Oct-31 17:59N 52°20' W 128°30'4 8.3
2017-Oct-31 17:30N 52°24' W 128°29'16 0.4
2017-Oct-30 05:24N 52°39' W 128°32'2 4.9
2017-Oct-30 05:00N 52°38' W 128°30'7 5.7
2017-Oct-30 03:45N 52°31' W 128°28'1 5.6
2017-Oct-30 03:30N 52°29' W 128°27'3 5.7
2017-Oct-30 03:00N 52°27' W 128°28'3 6.0
2017-Oct-30 02:31N 52°24' W 128°31'3 6.0
2017-Oct-30 02:00N 52°21' W 128°31'4 7.2
2017-Oct-30 01:30N 52°18' W 128°29'4 7.5
2017-Oct-30 01:00N 52°16' W 128°24'5 8.0
2017-Oct-30 00:22N 52°15' W 128°16'3 7.4
2017-Oct-30 00:00N 52°14' W 128°12'4 6.7
2017-Oct-29 23:24N 52°12' W 128°06'3 7.2
2017-Oct-29 22:59N 52°09' W 128°08'3 7.1
2017-Oct-29 22:30N 52°06' W 128°07'4 7.1
2017-Oct-29 21:56N 52°05' W 128°01'3 7.0
2017-Oct-29 21:30N 52°04' W 127°56'3 5.4
2017-Oct-29 21:00N 52°01' W 127°56'3 5.1
2017-Oct-29 20:30N 51°58' W 127°56'3 6.0
2017-Oct-29 20:01N 51°55' W 127°56'3 5.6
2017-Oct-29 19:30N 51°53' W 127°56'3 6.6
2017-Oct-29 19:01N 51°49' W 127°55'3 6.1
2017-Oct-29 18:31N 51°46' W 127°55'3 7.0
2017-Oct-29 18:00N 51°43' W 127°55'3 6.5
2017-Oct-29 17:31N 51°40' W 127°54'3 6.0
2017-Oct-29 17:00N 51°37' W 127°53'3 5.7
2017-Oct-29 16:31N 51°34' W 127°53'3 5.9
2017-Oct-29 16:01N 51°31' W 127°52'3 6.1
2017-Oct-29 15:30N 51°28' W 127°51'3 5.7
2017-Oct-29 14:58N 51°25' W 127°52'3 6.1
2017-Oct-29 14:29N 51°22' W 127°53'3 6.5
2017-Oct-29 13:59N 51°18' W 127°53'5 6.5
2017-Oct-29 13:16N 51°14' W 127°52'2 6.2
2017-Oct-29 12:59N 51°12' W 127°51'3 6.3
2017-Oct-29 12:31N 51°09' W 127°50'3 6.2
2017-Oct-29 12:00N 51°07' W 127°47'4 7.0
2017-Oct-29 11:30N 51°04' W 127°43'3 6.4
2017-Oct-29 11:00N 51°03' W 127°39'3 6.6
2017-Oct-29 10:31N 51°00' W 127°35'3 6.6
2017-Oct-29 10:01N 50°58' W 127°31'3 6.7
2017-Oct-29 09:31N 50°56' W 127°27'4 7.3
2017-Oct-29 09:01N 50°54' W 127°22'4 7.6
2017-Oct-29 08:30N 50°52' W 127°17'4 7.6
2017-Oct-29 07:58N 50°50' W 127°12'4 7.4
2017-Oct-29 07:30N 50°48' W 127°07'4 7.6
2017-Oct-29 06:56N 50°45' W 127°02'17 7.2
2017-Oct-29 04:34N 50°34' W 126°41'0 6.8
2017-Oct-29 04:30N 50°34' W 126°41'4 6.8
2017-Oct-29 03:53N 50°31' W 126°36'61 6.9
2017-Oct-28 19:01N 50°01' W 125°13'3 5.8
2017-Oct-28 18:30N 49°58' W 125°10'3 5.6
2017-Oct-28 18:00N 49°57' W 125°07'4 7.0
2017-Oct-28 17:29N 49°55' W 125°02'3 7.2
2017-Oct-28 17:00N 49°52' W 124°58'4 7.1
2017-Oct-28 16:30N 49°50' W 124°54'3 6.9
2017-Oct-28 16:01N 49°48' W 124°50'3 6.7
2017-Oct-28 15:30N 49°46' W 124°46'3 6.7
2017-Oct-28 15:00N 49°44' W 124°41'3 6.8
2017-Oct-28 14:30N 49°42' W 124°37'4 7.1
2017-Oct-28 14:00N 49°39' W 124°33'4 7.3
2017-Oct-28 13:30N 49°37' W 124°29'4 7.2
2017-Oct-28 13:00N 49°35' W 124°24'4 7.0
2017-Oct-28 12:30N 49°33' W 124°20'4 7.0
2017-Oct-28 12:00N 49°32' W 124°15'3 6.9
2017-Oct-28 11:30N 49°30' W 124°10'3 6.9
2017-Oct-28 11:00N 49°28' W 124°06'3 6.6
2017-Oct-28 10:30N 49°26' W 124°02'3 6.2
2017-Oct-28 10:00N 49°24' W 123°58'3 6.2
2017-Oct-28 09:30N 49°22' W 123°54'3 6.5
2017-Oct-28 09:00N 49°21' W 123°50'3 6.7
2017-Oct-28 08:30N 49°19' W 123°45'3 6.7
2017-Oct-28 08:00N 49°17' W 123°41'3 6.6
2017-Oct-28 07:30N 49°15' W 123°37'3 6.4
2017-Oct-28 07:00N 49°13' W 123°34'3 6.5
2017-Oct-28 06:30N 49°11' W 123°30'3 6.4
2017-Oct-28 06:00N 49°09' W 123°26'3 6.7
2017-Oct-28 05:29N 49°07' W 123°21'3 6.0
2017-Oct-28 05:00N 49°07' W 123°17'4 7.3
2017-Oct-28 04:30N 49°07' W 123°11'4 8.1
2017-Oct-28 04:00N 49°07' W 123°05'  

Dump ship's entire track history